Terminal Aerodrome Forecast
Issued by NWS

Home | Current Version | Previous Version | Text Only | Print | Product List | Glossary On
Versions: 1 2 3 4 5 6 7 8 9 10 11 12 13 14 15 16 17
894
FTUS43 KGRR 241746
TAFMKG
TAF
KMKG 241746Z 2418/2518 04012KT P6SM VCSH BKN100
     FM242000 04012KT P6SM VCTS BKN060CB
     FM250100 03011KT P6SM VCSH BKN040
     FM251200 36012G20KT P6SM BKN040=

USA.gov is the U.S. government's official web portal to all federal, state and local government web resources and services.